Terminal Aerodrome Forecast
Issued by NWS Knoxville/Tri Cities, TN

Home | Current Version | Previous Version | Text Only | Print | Product List | Glossary On
Versions: 1 2 3 4 5 6 7 8 9 10 11 12 13 14 15 16 17 18
000
FTUS44 KMRX 200520
TAFTRI
TAF
KTRI 200520Z 2006/2106 VRB02KT P6SM FEW250
     FM200800 00000KT 3SM BR SCT002
      TEMPO 2011/2013 1/2SM FG BKN001
     FM201330 VRB04KT P6SM FEW250=

USA.gov is the U.S. government's official web portal to all federal, state and local government web resources and services.